Time;durP1;ratioP1;P1;durP2;ratioP2;P2;SDS_P1;SDS_P2;PMS_P1;PMS_P2;Temp;Humidity;BMP_temperature;BMP_pressure;BME280_temperature;BME280_humidity;BME280_pressure;Samples;Min_cycle;Max_cycle;Signal;HPM_P1;HPM_P2
2023/11/09 00:01:37;;;;;;;5.30;3.20;;;;;;;19.79;47.22;101006.15;103541;1287;61471;-88
2023/11/09 00:04:03;;;;;;;4.50;2.70;;;;;;;19.79;47.19;101007.95;103313;1283;74536;-81
2023/11/09 00:06:29;;;;;;;5.60;3.40;;;;;;;19.79;47.10;101006.90;103655;1287;61333;-82
2023/11/09 00:08:55;;;;;;;6.20;2.80;;;;;;;19.79;47.15;101010.64;103531;1285;62071;-81
2023/11/09 00:11:21;;;;;;;5.20;2.80;;;;;;;19.79;47.10;101010.12;103515;1287;61362;-82
2023/11/09 00:13:47;;;;;;;5.40;3.30;;;;;;;19.79;47.08;101007.79;103620;1285;61388;-82
2023/11/09 00:16:13;;;;;;;4.50;3.00;;;;;;;19.78;47.10;101006.02;103335;1283;62541;-81
2023/11/09 00:18:39;;;;;;;5.80;2.90;;;;;;;19.79;47.00;101010.15;103596;1286;61372;-82
2023/11/09 00:21:05;;;;;;;5.00;3.00;;;;;;;19.78;47.03;101016.41;103617;1283;61468;-82
2023/11/09 00:23:31;;;;;;;4.60;2.80;;;;;;;19.78;46.98;101019.98;103558;1285;72487;-83
2023/11/09 00:25:58;;;;;;;4.50;2.80;;;;;;;19.78;47.07;101020.70;103444;1283;61453;-84
2023/11/09 00:28:26;;;;;;;4.30;2.90;;;;;;;19.78;46.90;101023.55;103691;1282;61382;-81
2023/11/09 00:30:52;;;;;;;5.70;2.90;;;;;;;19.78;46.82;101023.74;103510;1287;61385;-81
2023/11/09 00:33:17;;;;;;;5.10;3.00;;;;;;;19.77;46.95;101027.52;103517;1285;61358;-81
2023/11/09 00:35:45;;;;;;;4.50;3.00;;;;;;;19.77;46.89;101029.83;103488;1288;61853;-81
2023/11/09 00:38:15;;;;;;;5.30;2.80;;;;;;;19.78;46.71;101029.83;103499;1283;61427;-82
2023/11/09 00:40:41;;;;;;;6.00;3.00;;;;;;;19.77;46.82;101030.02;103333;1283;61371;-82
2023/11/09 00:43:07;;;;;;;4.40;2.60;;;;;;;19.77;46.68;101027.18;103591;1285;72547;-83
2023/11/09 00:45:34;;;;;;;6.70;2.90;;;;;;;19.77;46.77;101022.68;103616;1283;61785;-81
2023/11/09 00:48:03;;;;;;;5.30;2.90;;;;;;;19.77;46.74;101019.50;103369;1285;62682;-81
2023/11/09 00:50:31;;;;;;;5.90;2.90;;;;;;;19.77;46.70;101022.17;103474;1283;61454;-83
2023/11/09 00:52:57;;;;;;;4.60;2.70;;;;;;;19.76;46.74;101025.06;103420;1285;72409;-81
2023/11/09 00:55:24;;;;;;;4.40;2.70;;;;;;;19.76;46.66;101029.38;103501;1283;75260;-81
2023/11/09 00:57:49;;;;;;;4.60;2.80;;;;;;;19.77;46.61;101032.39;103651;1283;62514;-82
2023/11/09 01:00:16;;;;;;;5.10;2.80;;;;;;;19.76;46.52;101029.73;103651;1283;61951;-83
2023/11/09 01:02:44;;;;;;;4.80;2.70;;;;;;;19.76;46.61;101033.82;103538;1287;61363;-82
2023/11/09 01:05:36;;;;;;;5.70;3.00;;;;;;;19.76;46.63;101040.98;103529;1285;61433;-82
2023/11/09 01:08:02;;;;;;;4.30;2.70;;;;;;;19.75;46.62;101049.63;103286;1291;61469;-81
2023/11/09 01:10:29;;;;;;;4.80;2.80;;;;;;;19.76;46.52;101051.20;103085;1292;61390;-82
2023/11/09 01:12:54;;;;;;;4.30;2.50;;;;;;;19.76;46.57;101054.94;103256;1287;61375;-81
2023/11/09 01:15:20;;;;;;;5.90;3.00;;;;;;;19.76;46.50;101054.40;102972;1289;61499;-81
2023/11/09 01:18:02;;;;;;;4.50;2.70;;;;;;;19.75;46.37;101053.71;103241;1288;61458;-81
2023/11/09 01:20:32;;;;;;;4.20;2.80;;;;;;;19.75;46.41;101057.30;103394;1289;62484;-83
2023/11/09 01:22:58;;;;;;;5.00;3.00;;;;;;;19.75;46.32;101062.13;103242;1289;73203;-82
2023/11/09 01:25:24;;;;;;;4.70;2.50;;;;;;;19.75;46.39;101066.56;103265;1290;62323;-81
2023/11/09 01:27:49;;;;;;;4.30;2.80;;;;;;;19.75;46.35;101065.33;103283;1289;61538;-84
2023/11/09 01:30:15;;;;;;;4.40;2.70;;;;;;;19.75;46.31;101074.45;103193;1289;61455;-81
2023/11/09 01:32:41;;;;;;;4.80;2.90;;;;;;;19.75;46.24;101075.52;103323;1294;61902;-80
2023/11/09 01:35:07;;;;;;;6.50;2.80;;;;;;;19.75;46.31;101075.15;103129;1286;61534;-82
2023/11/09 01:37:34;;;;;;;4.20;2.50;;;;;;;19.75;46.25;101083.36;103156;1289;74195;-82
2023/11/09 01:40:02;;;;;;;4.80;2.80;;;;;;;19.75;46.19;101085.00;103170;1289;62084;-82
2023/11/09 01:42:28;;;;;;;4.80;2.80;;;;;;;19.75;46.20;101088.73;103202;1289;61303;-81
2023/11/09 01:44:54;;;;;;;4.50;2.70;;;;;;;19.75;46.23;101084.44;103317;1283;61407;-79
2023/11/09 01:47:19;;;;;;;4.20;2.50;;;;;;;19.74;46.16;101086.98;103551;1287;61430;-85
2023/11/09 01:49:45;;;;;;;5.40;2.50;;;;;;;19.74;46.09;101093.25;103451;1285;62160;-81
2023/11/09 01:52:11;;;;;;;4.50;2.50;;;;;;;19.74;46.14;101103.94;103573;1285;61379;-81
2023/11/09 01:54:36;;;;;;;3.80;2.50;;;;;;;19.74;46.01;101104.85;103710;1283;61401;-82
2023/11/09 01:57:02;;;;;;;4.80;2.50;;;;;;;19.74;46.14;101112.55;103526;1287;61275;-83
2023/11/09 01:59:28;;;;;;;4.70;2.70;;;;;;;19.75;46.03;101114.65;103642;1287;62566;-81
2023/11/09 02:01:55;;;;;;;6.10;2.70;;;;;;;19.74;45.94;101118.26;103502;1283;62518;-81
2023/11/09 02:04:21;;;;;;;4.90;2.50;;;;;;;19.74;46.05;101122.90;103450;1285;61472;-81
2023/11/09 02:06:47;;;;;;;4.10;2.60;;;;;;;19.74;45.98;101128.63;103597;1283;61386;-80
2023/11/09 02:09:13;;;;;;;4.20;2.70;;;;;;;19.74;45.90;101129.36;103594;1286;61278;-81
2023/11/09 02:11:39;;;;;;;6.30;2.80;;;;;;;19.74;45.97;101134.16;103569;1283;62553;-81
2023/11/09 02:14:05;;;;;;;4.50;2.30;;;;;;;19.74;45.83;101130.25;103520;1284;61792;-82
2023/11/09 02:16:31;;;;;;;4.10;2.40;;;;;;;19.74;45.83;101136.84;103604;1285;61364;-83
2023/11/09 02:18:57;;;;;;;4.40;2.70;;;;;;;19.73;45.98;101133.85;103625;1285;72362;-81
2023/11/09 02:21:23;;;;;;;5.10;2.30;;;;;;;19.73;45.65;101138.86;103588;1283;62580;-82
2023/11/09 02:23:49;;;;;;;5.90;2.40;;;;;;;19.73;45.77;101142.97;103576;1285;61315;-84
2023/11/09 02:26:18;;;;;;;4.10;2.50;;;;;;;19.73;45.78;101146.91;103464;1282;61863;-82
2023/11/09 02:28:46;;;;;;;6.00;2.40;;;;;;;19.72;45.73;101153.02;103758;1285;72491;-82
2023/11/09 02:31:12;;;;;;;5.10;2.50;;;;;;;19.73;45.77;101149.58;103322;1285;75398;-81
2023/11/09 02:33:38;;;;;;;4.00;2.40;;;;;;;19.73;45.73;101151.20;103502;1287;62539;-81
2023/11/09 02:36:04;;;;;;;4.60;2.60;;;;;;;19.72;45.76;101157.63;103578;1283;61705;-82
2023/11/09 02:38:30;;;;;;;4.30;2.20;;;;;;;19.72;45.66;101165.86;103656;1285;62680;-83
2023/11/09 02:40:56;;;;;;;4.10;2.60;;;;;;;19.72;45.76;101169.07;103570;1284;61341;-81
2023/11/09 02:43:24;;;;;;;5.50;2.60;;;;;;;19.72;45.56;101168.90;103482;1284;61436;-81
2023/11/09 02:45:50;;;;;;;4.40;2.40;;;;;;;19.72;45.70;101167.13;103678;1283;61379;-81
2023/11/09 02:48:16;;;;;;;3.80;2.30;;;;;;;19.72;45.70;101166.42;103431;1285;61384;-82
2023/11/09 02:50:42;;;;;;;4.70;2.20;;;;;;;19.72;45.70;101165.52;103325;1285;61367;-84
2023/11/09 02:53:11;;;;;;;4.60;2.70;;;;;;;19.72;45.65;101173.74;103354;1289;62541;-83
2023/11/09 02:55:38;;;;;;;4.90;2.70;;;;;;;19.72;45.63;101179.27;103241;1285;61389;-82
2023/11/09 02:58:05;;;;;;;3.60;2.30;;;;;;;19.71;45.56;101180.36;103289;1289;61395;-81
2023/11/09 03:00:31;;;;;;;4.20;2.40;;;;;;;19.71;45.62;101183.23;103289;1285;74968;-82
2023/11/09 03:02:57;;;;;;;3.60;2.30;;;;;;;19.71;45.41;101193.44;103424;1285;62641;-82
2023/11/09 03:05:22;;;;;;;3.30;2.20;;;;;;;19.71;45.53;101196.80;103329;1285;61449;-82
2023/11/09 03:07:48;;;;;;;3.60;2.20;;;;;;;19.71;45.56;101195.39;103289;1286;61373;-82
2023/11/09 03:10:16;;;;;;;5.30;2.40;;;;;;;19.71;45.39;101194.34;103362;1285;61460;-81
2023/11/09 03:12:41;;;;;;;3.60;2.30;;;;;;;19.71;45.50;101197.18;103386;1285;61337;-83
2023/11/09 03:15:09;;;;;;;3.90;2.20;;;;;;;19.71;45.43;101204.68;103205;1286;62488;-83
2023/11/09 03:17:39;;;;;;;3.70;2.20;;;;;;;19.71;45.35;101206.83;103439;1285;61607;-82
2023/11/09 03:20:09;;;;;;;3.70;2.20;;;;;;;19.71;45.44;101205.96;103424;1283;74367;-82
2023/11/09 03:22:37;;;;;;;;;;;;;;;19.71;45.29;101201.30;103560;1290;61299;-82
2023/11/09 03:25:04;;;;;;;3.60;2.30;;;;;;;19.69;45.37;101207.70;103622;1287;61318;-82
2023/11/09 03:27:30;;;;;;;3.80;2.20;;;;;;;19.69;45.34;101205.89;103618;1283;72451;-82
2023/11/09 03:29:56;;;;;;;4.40;2.30;;;;;;;19.68;45.26;101211.28;103642;1285;61431;-83
2023/11/09 03:32:23;;;;;;;4.20;2.20;;;;;;;19.69;45.22;101215.52;103541;1285;61475;-81
2023/11/09 03:34:49;;;;;;;3.90;2.30;;;;;;;19.69;45.25;101215.89;103480;1283;62380;-83
2023/11/09 03:37:14;;;;;;;4.20;2.30;;;;;;;19.69;45.32;101219.10;103441;1285;62525;-81
2023/11/09 03:39:40;;;;;;;4.20;2.40;;;;;;;19.69;45.30;101222.14;103638;1287;61398;-82
2023/11/09 03:42:06;;;;;;;3.50;2.20;;;;;;;19.69;45.16;101222.65;103707;1285;61674;-81
2023/11/09 03:44:39;;;;;;;3.70;2.40;;;;;;;19.69;45.15;101223.92;103437;1284;61252;-82
2023/11/09 03:47:05;;;;;;;3.30;2.10;;;;;;;19.69;45.10;101221.06;103832;1283;61279;-82
2023/11/09 03:49:31;;;;;;;3.60;2.20;;;;;;;19.69;45.13;101226.26;103327;1289;61277;-82
2023/11/09 03:51:57;;;;;;;4.00;2.40;;;;;;;19.69;45.10;101229.80;103353;1284;61501;-82
2023/11/09 03:54:22;;;;;;;5.20;2.30;;;;;;;19.69;45.00;101226.25;103537;1282;61390;-81
2023/11/09 03:56:48;;;;;;;3.80;2.40;;;;;;;19.68;45.06;101226.99;103659;1285;61374;-82
2023/11/09 03:59:14;;;;;;;3.20;2.20;;;;;;;19.69;45.09;101227.86;103437;1288;62167;-81
2023/11/09 04:01:39;;;;;;;4.20;2.70;;;;;;;19.69;45.18;101230.20;103772;1285;61541;-83
2023/11/09 04:04:06;;;;;;;3.80;2.40;;;;;;;19.69;45.00;101233.05;103536;1285;74377;-81
2023/11/09 04:06:34;;;;;;;4.50;2.40;;;;;;;19.68;45.03;101233.27;103603;1285;61325;-83
2023/11/09 04:09:05;;;;;;;4.00;2.30;;;;;;;19.68;44.95;101240.58;103524;1287;62579;-81
2023/11/09 04:11:33;;;;;;;4.50;2.20;;;;;;;19.68;44.89;101248.10;103613;1285;72550;-84
2023/11/09 04:13:59;;;;;;;3.70;2.10;;;;;;;19.67;44.85;101254.53;103405;1282;73462;-81
2023/11/09 04:16:25;;;;;;;6.30;2.80;;;;;;;19.67;44.79;101255.25;103574;1283;61415;-82
2023/11/09 04:18:51;;;;;;;4.10;2.40;;;;;;;19.67;44.93;101255.11;103392;1289;61360;-83
2023/11/09 04:21:17;;;;;;;4.40;2.50;;;;;;;19.66;44.73;101255.36;103435;1285;61529;-82
2023/11/09 04:23:43;;;;;;;5.20;2.70;;;;;;;19.64;44.71;101253.48;103528;1285;61342;-84
2023/11/09 04:26:37;;;;;;;4.40;2.50;;;;;;;19.62;44.91;101258.40;103788;1285;61378;-82
2023/11/09 04:29:03;;;;;;;5.10;2.30;;;;;;;19.60;44.76;101264.05;103205;1291;61398;-82
2023/11/09 04:31:30;;;;;;;5.00;2.80;;;;;;;19.58;44.81;101268.08;103252;1289;61369;-81
2023/11/09 04:34:02;;;;;;;6.90;2.60;;;;;;;19.57;44.59;101275.16;103200;1288;75408;-82
2023/11/09 04:36:28;;;;;;;4.60;2.60;;;;;;;19.54;44.53;101275.30;103488;1288;61402;-82
2023/11/09 04:38:53;;;;;;;5.90;2.90;;;;;;;19.53;44.35;101276.10;103353;1288;62494;-81
2023/11/09 04:41:21;;;;;;;7.00;2.90;;;;;;;19.50;44.32;101281.78;103291;1289;61784;-82
2023/11/09 04:43:47;;;;;;;5.40;2.80;;;;;;;19.49;44.25;101285.10;103302;1290;61398;-82
2023/11/09 04:46:17;;;;;;;5.40;2.70;;;;;;;19.46;44.05;101287.75;103096;1288;63240;-82
2023/11/09 04:48:55;;;;;;;8.10;3.10;;;;;;;19.43;44.13;101288.40;102978;1288;62535;-82
2023/11/09 04:51:22;;;;;;;5.00;2.70;;;;;;;19.41;44.09;101292.44;102936;1288;72505;-82
2023/11/09 04:53:56;;;;;;;6.70;2.80;;;;;;;19.39;44.01;101292.02;102996;1288;75196;-82
2023/11/09 05:07:25;;;;;;;6.20;2.60;;;;;;;19.26;43.55;101298.28;103759;1285;61399;-82
2023/11/09 05:09:52;;;;;;;6.90;2.80;;;;;;;19.24;43.35;101304.63;103578;1285;61346;-80
2023/11/09 05:12:18;;;;;;;6.30;2.90;;;;;;;19.22;43.30;101305.50;103852;1285;61392;-81
2023/11/09 05:14:43;;;;;;;5.40;3.10;;;;;;;19.19;43.27;101303.85;103895;1283;62820;-81
2023/11/09 05:17:10;;;;;;;5.70;2.70;;;;;;;19.17;43.16;101307.70;103899;1283;61288;-82
2023/11/09 05:19:36;;;;;;;6.20;3.00;;;;;;;19.15;43.17;101310.70;103644;1285;61266;-81
2023/11/09 05:22:03;;;;;;;7.70;2.70;;;;;;;19.13;42.98;101312.04;103547;1285;61445;-81
2023/11/09 05:24:29;;;;;;;7.20;3.30;;;;;;;19.12;43.12;101317.65;103871;1283;62146;-82
2023/11/09 05:26:56;;;;;;;8.40;3.00;;;;;;;19.10;43.39;101322.02;103829;1283;61449;-81
2023/11/09 05:29:23;;;;;;;6.70;3.10;;;;;;;19.09;43.14;101326.34;103719;1287;62345;-82
2023/11/09 05:31:51;;;;;;;7.40;2.90;;;;;;;19.07;43.30;101328.92;104022;1285;61355;-82
2023/11/09 05:34:16;;;;;;;7.20;3.00;;;;;;;19.07;43.38;101334.67;104231;1283;74628;-81
2023/11/09 05:36:43;;;;;;;8.50;3.20;;;;;;;19.06;43.33;101340.09;104081;1284;61493;-82
2023/11/09 05:39:10;;;;;;;9.50;3.40;;;;;;;19.05;43.25;101344.57;103755;1285;61443;-82
2023/11/09 05:41:39;;;;;;;8.00;3.50;;;;;;;19.04;43.29;101353.37;104367;1283;61761;-81
2023/11/09 05:44:05;;;;;;;8.70;3.40;;;;;;;19.03;43.13;101358.23;104368;1283;75432;-81
2023/11/09 05:46:30;;;;;;;10.50;3.30;;;;;;;19.02;43.02;101362.61;104427;1284;61292;-80
2023/11/09 05:48:56;;;;;;;8.10;3.80;;;;;;;19.01;43.09;101365.70;104281;1287;61762;-80
2023/11/09 05:51:23;;;;;;;8.40;3.40;;;;;;;19.00;42.99;101369.66;104731;1285;61366;-81
2023/11/09 05:53:53;;;;;;;10.00;3.40;;;;;;;18.98;42.89;101372.78;104375;1284;61259;-81
2023/11/09 05:56:23;;;;;;;11.30;3.70;;;;;;;18.97;42.90;101377.33;104579;1283;61275;-82
2023/11/09 05:58:53;;;;;;;15.80;3.70;;;;;;;18.94;42.79;101385.31;105092;1283;61354;-80
2023/11/09 06:01:20;;;;;;;10.90;3.40;;;;;;;18.92;42.47;101387.55;105039;1283;73190;-81
2023/11/09 06:03:47;;;;;;;8.30;3.00;;;;;;;18.91;42.36;101393.66;104941;1285;75600;-81
2023/11/09 06:06:13;;;;;;;6.90;3.40;;;;;;;18.91;42.49;101396.69;105126;1284;61382;-81
2023/11/09 06:08:39;;;;;;;8.80;3.50;;;;;;;18.91;42.21;101405.27;104943;1283;61524;-81
2023/11/09 06:11:10;;;;;;;13.00;4.00;;;;;;;18.90;42.24;101411.20;104891;1283;61281;-81
2023/11/09 06:13:37;;;;;;;7.50;3.00;;;;;;;18.89;42.14;101413.20;104773;1282;74496;-80
2023/11/09 06:16:05;;;;;;;8.00;3.30;;;;;;;18.91;42.05;101417.91;104925;1283;61341;-81
2023/11/09 06:18:32;;;;;;;7.90;3.40;;;;;;;18.91;42.07;101417.18;104774;1285;61279;-81
2023/11/09 06:21:00;;;;;;;8.10;3.20;;;;;;;18.92;42.00;101417.13;104879;1283;72329;-81
2023/11/09 06:23:30;;;;;;;13.80;3.30;;;;;;;18.93;41.90;101424.38;104933;1283;73546;-81
2023/11/09 06:25:56;;;;;;;6.00;3.00;;;;;;;18.95;41.94;101429.52;104888;1282;61394;-81
2023/11/09 06:28:25;;;;;;;7.10;2.80;;;;;;;18.95;41.97;101433.08;104959;1282;59939;-80
2023/11/09 06:30:51;;;;;;;8.90;3.50;;;;;;;18.95;41.85;101433.59;105082;1282;72255;-81
2023/11/09 06:33:18;;;;;;;9.60;2.90;;;;;;;18.94;41.84;101438.09;104974;1283;61386;-81
2023/11/09 06:35:46;;;;;;;5.90;2.80;;;;;;;18.94;41.84;101444.50;104541;1285;61373;-81
2023/11/09 06:38:13;;;;;;;9.00;3.30;;;;;;;18.92;41.59;101445.48;105173;1284;61160;-82
2023/11/09 06:40:39;;;;;;;6.20;2.70;;;;;;;18.90;41.43;101443.80;104818;1288;72946;-81
2023/11/09 06:43:05;;;;;;;6.20;2.90;;;;;;;18.89;41.25;101443.52;105265;1288;60695;-81
2023/11/09 06:45:31;;;;;;;6.40;3.10;;;;;;;18.89;41.17;101446.21;105089;1283;61479;-81
2023/11/09 06:47:58;;;;;;;7.60;3.10;;;;;;;18.87;41.16;101450.38;105110;1284;59166;-81
2023/11/09 06:50:23;;;;;;;10.80;3.00;;;;;;;18.87;41.06;101455.75;105510;1283;61304;-82
2023/11/09 06:52:51;;;;;;;7.40;3.20;;;;;;;18.86;40.97;101454.52;105244;1284;61751;-82
2023/11/09 06:55:16;;;;;;;12.50;3.30;;;;;;;18.84;40.89;101457.30;105453;1282;61267;-82
2023/11/09 06:57:43;;;;;;;18.10;3.60;;;;;;;18.84;41.11;101465.33;105000;1283;61389;-83
2023/11/09 07:00:13;;;;;;;6.70;2.90;;;;;;;18.84;41.39;101467.13;105281;1283;59420;-82
2023/11/09 07:02:39;;;;;;;11.70;3.10;;;;;;;18.77;41.54;101462.14;105437;1282;73442;-82
2023/11/09 07:05:06;;;;;;;11.60;3.50;;;;;;;18.77;41.59;101460.16;105473;1284;61375;-83
2023/11/09 07:07:38;;;;;;;9.00;4.10;;;;;;;18.78;41.62;101458.85;105145;1285;61371;-82
2023/11/09 07:10:05;;;;;;;10.70;3.70;;;;;;;18.78;41.52;101464.20;105081;1285;72715;-82
2023/11/09 07:12:31;;;;;;;9.50;3.40;;;;;;;18.78;41.55;101466.90;105140;1283;74332;-82
2023/11/09 07:14:57;;;;;;;7.10;3.20;;;;;;;18.78;41.36;101467.95;104977;1283;59358;-82
2023/11/09 07:17:22;;;;;;;9.40;3.10;;;;;;;18.80;41.37;101476.63;105326;1283;61292;-82
2023/11/09 07:19:51;;;;;;;7.20;3.50;;;;;;;18.80;41.39;101481.05;105291;1283;61147;-81
2023/11/09 07:22:41;;;;;;;11.60;3.20;;;;;;;18.80;41.15;101485.67;105333;1284;74387;-81
2023/11/09 07:25:08;;;;;;;8.10;3.50;;;;;;;18.81;41.14;101490.27;105033;1289;61444;-82
2023/11/09 07:27:35;;;;;;;8.60;3.00;;;;;;;18.83;40.95;101493.20;104784;1289;61397;-81
2023/11/09 07:30:01;;;;;;;9.80;3.00;;;;;;;18.84;40.98;101497.77;104968;1289;72430;-82
2023/11/09 07:32:28;;;;;;;9.40;2.90;;;;;;;18.86;40.98;101497.37;104854;1289;61459;-81
2023/11/09 07:34:54;;;;;;;4.90;2.80;;;;;;;18.86;41.01;101501.06;104687;1287;61225;-81
2023/11/09 07:37:21;;;;;;;7.80;3.20;;;;;;;18.87;40.84;101501.40;104986;1292;61391;-80
2023/11/09 07:39:48;;;;;;;5.00;2.90;;;;;;;18.87;40.94;101499.45;104795;1291;59290;-81
2023/11/09 07:42:14;;;;;;;7.50;3.50;;;;;;;18.86;40.57;101499.63;104879;1287;74262;-80
2023/11/09 07:44:39;;;;;;;5.80;2.80;;;;;;;18.87;40.70;101500.88;104983;1289;62551;-81
2023/11/09 07:47:05;;;;;;;6.70;3.10;;;;;;;18.86;40.57;101495.20;104684;1288;61262;-80
2023/11/09 07:49:31;;;;;;;7.10;3.00;;;;;;;18.86;40.50;101492.34;104951;1291;61187;-80
2023/11/09 07:51:58;;;;;;;6.00;3.50;;;;;;;18.85;40.37;101497.73;104738;1288;61549;-85
2023/11/09 07:54:26;;;;;;;16.50;4.00;;;;;;;18.83;40.31;101498.90;104757;1294;73558;-82
2023/11/09 07:56:51;;;;;;;17.30;3.60;;;;;;;18.77;40.36;101499.77;104474;1288;59636;-81
2023/11/09 07:59:17;;;;;;;13.90;4.00;;;;;;;18.73;40.41;101500.48;104608;1294;61658;-83
2023/11/09 08:01:43;;;;;;;9.10;3.90;;;;;;;18.71;40.42;101506.09;105268;1284;59002;-81
2023/11/09 08:04:09;;;;;;;9.30;4.00;;;;;;;18.68;40.21;101507.01;105463;1284;61305;-81
2023/11/09 08:06:37;;;;;;;8.80;3.60;;;;;;;18.63;40.50;101507.96;105382;1284;61381;-82
2023/11/09 08:09:05;;;;;;;19.00;3.70;;;;;;;18.62;40.47;101506.41;106751;1285;58846;-82
2023/11/09 08:11:32;;;;;;;12.00;3.60;;;;;;;18.64;40.71;101508.63;106672;1285;74266;-82
2023/11/09 08:13:58;;;;;;;16.70;3.40;;;;;;;18.68;40.86;101510.75;106509;1284;60123;-82
2023/11/09 08:16:23;;;;;;;17.40;3.80;;;;;;;18.72;41.08;101514.46;106607;1283;59104;-81
2023/11/09 08:18:50;;;;;;;15.80;3.60;;;;;;;18.75;41.26;101518.21;106609;1283;59491;-81
2023/11/09 08:21:15;;;;;;;10.10;3.60;;;;;;;18.79;41.19;101523.39;106674;1282;58722;-81
2023/11/09 08:23:42;;;;;;;17.50;4.00;;;;;;;18.81;41.32;101525.77;106716;1283;59334;-81
2023/11/09 08:26:10;;;;;;;10.50;3.20;;;;;;;18.83;41.45;101529.20;106718;1283;59437;-81
2023/11/09 08:28:37;;;;;;;8.30;3.40;;;;;;;18.86;41.31;101530.34;106514;1284;301169;-81
2023/11/09 08:31:08;;;;;;;7.10;3.30;;;;;;;18.87;41.39;101530.46;106733;1283;58857;-81
2023/11/09 08:33:35;;;;;;;7.40;3.00;;;;;;;18.88;41.27;101526.31;106550;1285;74432;-80
2023/11/09 08:36:04;;;;;;;8.80;3.00;;;;;;;18.90;41.21;101529.11;106541;1283;59922;-81
2023/11/09 08:38:33;;;;;;;6.10;3.10;;;;;;;18.90;41.11;101530.50;106561;1283;60036;-82
2023/11/09 08:41:00;;;;;;;7.80;3.10;;;;;;;18.91;41.02;101531.35;106702;1283;72234;-81
2023/11/09 08:43:26;;;;;;;8.80;3.20;;;;;;;18.92;40.93;101529.52;106536;1285;75235;-82
2023/11/09 08:45:52;;;;;;;8.20;3.10;;;;;;;18.93;40.93;101526.98;106700;1282;59520;-82
2023/11/09 08:48:18;;;;;;;5.50;2.90;;;;;;;18.94;41.01;101527.66;106598;1285;59347;-82
2023/11/09 08:50:47;;;;;;;10.80;2.90;;;;;;;18.94;40.70;101527.29;106095;1285;61263;-80
2023/11/09 08:53:12;;;;;;;13.20;4.00;;;;;;;18.94;40.54;101528.53;105443;1287;74447;-82
2023/11/09 08:55:41;;;;;;;11.10;3.40;;;;;;;18.90;40.69;101530.87;105457;1287;61582;-81
2023/11/09 08:58:06;;;;;;;18.50;3.90;;;;;;;18.89;40.82;101533.40;105119;1285;61915;-81
2023/11/09 09:00:34;;;;;;;20.30;4.00;;;;;;;18.92;41.14;101530.23;105194;1287;62633;-83
2023/11/09 09:03:01;;;;;;;14.40;3.60;;;;;;;18.93;41.35;101528.05;105146;1288;75685;-81
2023/11/09 09:05:27;;;;;;;24.70;4.60;;;;;;;18.95;41.51;101527.61;104867;1284;61431;-80
2023/11/09 09:07:54;;;;;;;25.80;3.70;;;;;;;18.98;41.70;101528.70;104906;1285;61198;-79
2023/11/09 09:10:20;;;;;;;18.00;3.50;;;;;;;19.00;42.00;101527.16;106642;1285;58533;-79
2023/11/09 09:12:47;;;;;;;13.80;4.10;;;;;;;19.02;42.14;101524.41;105845;1284;74444;-79
2023/11/09 09:15:16;;;;;;;9.60;3.60;;;;;;;19.03;42.04;101524.16;105044;1284;61133;-79
2023/11/09 09:17:45;;;;;;;24.50;3.40;;;;;;;19.04;41.99;101522.13;106403;1285;62157;-78
2023/11/09 09:20:18;;;;;;;10.80;3.00;;;;;;;19.05;41.90;101522.80;104965;1288;72325;-80
2023/11/09 09:22:45;;;;;;;9.00;3.10;;;;;;;19.06;41.99;101522.95;105044;1287;74502;-79
2023/11/09 09:25:11;;;;;;;6.40;3.30;;;;;;;19.06;41.91;101523.64;106722;1283;60362;-80
2023/11/09 09:27:40;;;;;;;9.70;2.80;;;;;;;19.06;41.85;101522.91;105251;1283;61695;-80
2023/11/09 09:30:13;;;;;;;7.00;2.60;;;;;;;19.07;41.87;101522.34;104632;1285;72534;-82
2023/11/09 09:32:42;;;;;;;4.60;2.60;;;;;;;19.07;41.89;101524.99;105167;1283;74521;-82
2023/11/09 09:35:10;;;;;;;7.40;2.80;;;;;;;19.08;41.88;101525.34;104939;1284;59881;-81
2023/11/09 09:37:37;;;;;;;10.90;2.80;;;;;;;19.07;41.67;101521.63;105475;1285;61331;-82
2023/11/09 09:40:14;;;;;;;7.90;2.60;;;;;;;19.07;41.65;101520.20;105758;1282;74840;-81
2023/11/09 09:42:46;;;;;;;10.30;2.70;;;;;;;19.07;41.51;101519.30;105342;1285;74467;-82
2023/11/09 09:45:14;;;;;;;13.80;4.00;;;;;;;19.07;41.47;101524.33;105170;1283;61129;-82
2023/11/09 09:47:45;;;;;;;5.70;2.60;;;;;;;19.07;41.36;101524.51;105198;1284;61270;-81
2023/11/09 09:50:11;;;;;;;6.80;2.60;;;;;;;19.06;41.42;101522.94;106529;1285;72667;-81
2023/11/09 09:52:38;;;;;;;19.40;3.70;;;;;;;19.05;41.33;101524.39;106564;1284;58960;-82
2023/11/09 09:55:08;;;;;;;22.70;4.10;;;;;;;19.10;41.84;101523.65;106506;1285;61064;-81
2023/11/09 09:57:34;;;;;;;16.10;3.40;;;;;;;19.06;41.84;101522.36;106482;1284;59991;-82
2023/11/09 10:00:07;;;;;;;18.20;4.20;;;;;;;19.03;42.10;101520.03;106315;1283;72479;-82
2023/11/09 10:02:37;;;;;;;19.00;4.00;;;;;;;19.02;42.26;101518.15;106298;1284;74618;-82
2023/11/09 10:05:02;;;;;;;;;;;;;;;19.01;42.37;101518.39;106489;1284;60048;-82
2023/11/09 10:07:31;;;;;;;14.30;3.70;;;;;;;18.98;42.65;101514.45;106355;1284;60339;-82
2023/11/09 10:09:56;;;;;;;10.30;3.40;;;;;;;18.98;42.51;101515.11;106323;1284;72352;-82
2023/11/09 10:12:22;;;;;;;15.60;3.80;;;;;;;18.92;42.25;101511.52;105902;1285;59395;-82
2023/11/09 10:14:47;;;;;;;6.20;2.90;;;;;;;18.86;42.12;101511.79;105654;1287;61356;-82
2023/11/09 10:17:13;;;;;;;15.40;3.40;;;;;;;18.83;42.13;101515.34;105221;1289;61404;-84
2023/11/09 10:19:42;;;;;;;10.20;3.40;;;;;;;18.80;41.91;101515.30;105108;1285;59296;-82
2023/11/09 10:22:08;;;;;;;9.60;3.20;;;;;;;18.75;41.70;101512.69;105655;1284;73883;-81
2023/11/09 10:24:33;;;;;;;10.10;3.40;;;;;;;18.68;41.41;101518.02;105301;1283;61449;-82
2023/11/09 10:27:00;;;;;;;8.60;3.10;;;;;;;18.61;41.24;101519.45;105338;1285;61507;-82
2023/11/09 10:29:25;;;;;;;7.00;3.00;;;;;;;18.54;41.09;101515.16;105347;1283;61364;-82
2023/11/09 10:31:53;;;;;;;8.30;3.10;;;;;;;18.51;41.24;101511.89;105268;1289;60063;-82
2023/11/09 10:34:19;;;;;;;6.00;3.00;;;;;;;18.49;41.09;101512.92;105715;1283;61206;-82
2023/11/09 10:36:45;;;;;;;6.70;2.60;;;;;;;18.43;41.02;101511.39;105562;1283;61317;-82
2023/11/09 10:39:21;;;;;;;11.30;3.20;;;;;;;18.40;40.86;101509.60;105246;1287;63635;-82
2023/11/09 10:41:56;;;;;;;7.80;2.80;;;;;;;18.37;40.90;101506.54;106590;1285;72557;-82
2023/11/09 10:44:22;;;;;;;10.20;2.80;;;;;;;18.35;40.96;101505.21;106482;1285;74239;-81
2023/11/09 10:46:56;;;;;;;7.20;2.70;;;;;;;18.38;40.85;101502.94;106624;1283;60059;-81
2023/11/09 10:49:30;;;;;;;10.80;2.60;;;;;;;18.42;41.08;101502.17;106708;1287;60054;-82
2023/11/09 10:51:59;;;;;;;8.40;3.00;;;;;;;18.45;41.04;101502.78;106461;1285;73658;-82
2023/11/09 10:54:27;;;;;;;8.20;2.80;;;;;;;18.44;41.00;101500.33;106416;1284;74394;-82
2023/11/09 10:56:55;;;;;;;7.30;2.90;;;;;;;18.46;41.12;101497.36;106584;1283;60103;-81
2023/11/09 10:59:22;;;;;;;7.30;2.90;;;;;;;18.45;40.84;101496.31;106251;1287;60086;-82
2023/11/09 11:01:51;;;;;;;8.60;2.90;;;;;;;18.44;40.92;101496.04;105295;1283;72360;-82
2023/11/09 11:04:20;;;;;;;10.00;3.40;;;;;;;18.45;41.05;101494.38;105365;1282;73425;-84
2023/11/09 11:06:51;;;;;;;6.00;2.70;;;;;;;18.38;40.78;101493.80;105540;1286;60402;-81
2023/11/09 11:09:25;;;;;;;10.60;2.70;;;;;;;18.28;40.61;101490.02;105298;1284;60056;-82
2023/11/09 11:11:52;;;;;;;14.40;3.60;;;;;;;18.20;40.47;101488.45;105294;1285;73663;-83
2023/11/09 11:14:17;;;;;;;8.60;2.50;;;;;;;18.10;40.65;101488.02;105405;1287;61258;-80
2023/11/09 11:17:20;;;;;;;9.50;2.80;;;;;;;18.14;40.75;101486.25;105555;1288;61525;-81
2023/11/09 11:20:01;;;;;;;10.70;2.90;;;;;;;18.24;40.83;101486.85;105342;1285;61248;-80
2023/11/09 11:22:54;;;;;;;13.20;3.00;;;;;;;18.28;40.89;101486.46;105380;1285;73501;-81
2023/11/09 11:25:30;;;;;;;11.00;2.40;;;;;;;18.33;41.08;101487.11;105554;1285;74220;-81
2023/11/09 11:28:00;;;;;;;12.60;2.90;;;;;;;18.38;40.94;101483.16;105161;1287;61260;-81
2023/11/09 11:30:32;;;;;;;5.50;2.40;;;;;;;18.37;40.75;101487.98;106531;1283;59975;-81